createdAt,value
2019-02-28T00:01:11.863Z,99167.59
2019-02-28T00:03:46.614Z,99171.06
2019-02-28T00:06:22.364Z,99174.67
2019-02-28T00:08:56.487Z,99171.82
2019-02-28T00:11:30.675Z,99163.44
2019-02-28T00:14:04.859Z,99164.94
2019-02-28T00:16:39.154Z,99163.09
2019-02-28T00:19:13.366Z,99158.66
2019-02-28T00:21:50.597Z,99156.78
2019-02-28T00:24:27.162Z,99151.85
2019-02-28T00:26:59.875Z,99149.34
2019-02-28T00:29:34.458Z,99148.92
2019-02-28T00:32:10.525Z,99153.93
2019-02-28T00:35:05.332Z,99148.33
2019-02-28T00:37:39.707Z,99150.16
2019-02-28T00:40:14.334Z,99141.04
2019-02-28T00:42:50.885Z,99138.20
2019-02-28T00:45:26.484Z,99144.50
2019-02-28T00:48:03.150Z,99140.63
2019-02-28T00:50:37.252Z,99136.27
2019-02-28T00:53:11.291Z,99130.56
2019-02-28T00:55:46.210Z,99131.19
2019-02-28T00:58:22.481Z,99124.14
2019-02-28T01:00:56.940Z,99129.42
2019-02-28T01:03:31.199Z,99132.97
2019-02-28T01:06:09.755Z,99133.98
2019-02-28T01:08:42.144Z,99126.50
2019-02-28T01:11:18.345Z,99121.51
2019-02-28T01:13:52.224Z,99126.20
2019-02-28T01:16:27.922Z,99121.88
2019-02-28T01:19:08.595Z,99118.48
2019-02-28T01:21:39.098Z,99120.72
2019-02-28T01:24:14.671Z,99122.40
2019-02-28T01:26:48.773Z,99124.71
2019-02-28T01:29:33.010Z,99124.52
2019-02-28T01:32:07.786Z,99129.84
2019-02-28T01:34:42.010Z,99124.01
2019-02-28T01:37:16.238Z,99134.10
2019-02-28T01:39:50.555Z,99134.26
2019-02-28T01:42:24.644Z,99125.22
2019-02-28T01:45:00.773Z,99130.75
2019-02-28T01:47:35.049Z,99124.93
2019-02-28T01:50:11.551Z,99125.06
2019-02-28T01:52:48.906Z,99127.36
2019-02-28T01:55:23.097Z,99117.69
2019-02-28T01:57:57.207Z,99122.33
2019-02-28T02:00:31.422Z,99109.44
2019-02-28T02:03:05.704Z,99114.19
2019-02-28T02:05:41.506Z,99111.75
2019-02-28T02:08:16.348Z,99102.86
2019-02-28T02:10:54.933Z,99111.81
2019-02-28T02:13:25.947Z,99107.47
2019-02-28T02:16:01.501Z,99110.51
2019-02-28T02:18:35.498Z,99112.06
2019-02-28T02:21:11.270Z,99103.65
2019-02-28T02:23:49.641Z,99102.88
2019-02-28T02:26:24.065Z,99103.17
2019-02-28T02:29:03.188Z,99097.08
2019-02-28T02:31:37.392Z,99096.97
2019-02-28T02:34:11.536Z,99093.81
2019-02-28T02:36:53.046Z,99100.92
2019-02-28T02:39:21.976Z,99093.75
2019-02-28T02:41:55.967Z,99094.86
2019-02-28T02:44:31.749Z,99092.06
2019-02-28T02:47:05.253Z,99091.32
2019-02-28T02:49:39.550Z,99086.71
2019-02-28T02:52:18.203Z,99084.05
2019-02-28T02:54:53.665Z,99090.52
2019-02-28T02:57:27.880Z,99086.77
2019-02-28T03:00:03.323Z,99090.06
2019-02-28T03:02:37.508Z,99087.00
2019-02-28T03:05:13.451Z,99087.24
2019-02-28T03:07:47.655Z,99085.65
2019-02-28T03:10:21.895Z,99082.71
2019-02-28T03:12:56.136Z,99089.64
2019-02-28T03:15:31.687Z,99083.88
2019-02-28T03:18:26.816Z,99078.87
2019-02-28T03:21:01.179Z,99083.25
2019-02-28T03:23:40.178Z,99073.80
2019-02-28T03:26:12.629Z,99075.08
2019-02-28T03:28:46.906Z,99069.93
2019-02-28T03:31:21.113Z,99065.34
2019-02-28T03:33:55.227Z,99063.23
2019-02-28T03:36:29.668Z,99073.59
2019-02-28T03:39:03.847Z,99065.97
2019-02-28T03:41:38.177Z,99064.53
2019-02-28T03:44:19.862Z,99056.60
2019-02-28T03:46:48.932Z,99058.03
2019-02-28T03:49:23.757Z,99056.78
2019-02-28T03:52:04.999Z,99048.98
2019-02-28T03:54:37.423Z,99053.65
2019-02-28T03:57:12.333Z,99049.63
2019-02-28T03:59:55.449Z,99044.75
2019-02-28T04:02:24.532Z,99048.81
2019-02-28T04:04:58.584Z,99042.59
2019-02-28T04:07:34.591Z,99035.41
2019-02-28T04:10:10.995Z,99033.20
2019-02-28T04:12:46.781Z,99030.98
2019-02-28T04:15:21.079Z,99031.61
2019-02-28T04:23:48.059Z,99017.13
2019-02-28T04:26:23.656Z,99019.46
2019-02-28T04:28:57.637Z,99021.14
2019-02-28T04:31:31.638Z,99010.70
2019-02-28T04:34:12.929Z,99016.81
2019-02-28T04:36:43.445Z,99010.36
2019-02-28T04:39:18.804Z,99009.90
2019-02-28T04:41:54.599Z,99011.31
2019-02-28T04:44:28.636Z,99006.81
2019-02-28T04:47:03.449Z,99003.53
2019-02-28T04:49:37.750Z,99002.16
2019-02-28T04:52:18.898Z,99003.27
2019-02-28T04:54:54.739Z,98993.45
2019-02-28T04:57:29.097Z,98995.64
2019-02-28T05:00:05.900Z,98995.30
2019-02-28T05:02:39.774Z,98998.53
2019-02-28T05:05:13.968Z,99004.57
2019-02-28T05:07:50.017Z,98990.80
2019-02-28T05:10:25.160Z,98995.08
2019-02-28T05:12:59.065Z,98990.52
2019-02-28T05:15:37.518Z,98993.09
2019-02-28T05:18:08.595Z,98994.28
2019-02-28T05:20:45.970Z,98984.73
2019-02-28T05:23:20.990Z,98984.38
2019-02-28T05:25:54.983Z,98988.12
2019-02-28T05:28:28.766Z,98987.86
2019-02-28T05:31:04.177Z,98990.19
2019-02-28T05:33:38.382Z,98982.81
2019-02-28T05:36:15.082Z,98989.25
2019-02-28T05:38:53.587Z,98987.39
2019-02-28T05:41:25.840Z,99000.28
2019-02-28T05:44:03.290Z,98986.42
2019-02-28T05:46:36.662Z,98986.37
2019-02-28T05:49:10.512Z,98990.85
2019-02-28T05:51:45.851Z,98981.51
2019-02-28T05:54:21.217Z,98986.34
2019-02-28T05:56:55.272Z,98991.57
2019-02-28T05:59:30.560Z,98990.89
2019-02-28T06:02:04.541Z,98993.63
2019-02-28T06:04:38.538Z,98996.09
2019-02-28T06:07:12.516Z,98999.00
2019-02-28T06:09:48.799Z,98999.95
2019-02-28T06:12:21.469Z,99004.21
2019-02-28T06:15:01.944Z,98995.86
2019-02-28T06:17:32.172Z,98998.71
2019-02-28T06:20:08.348Z,98998.59
2019-02-28T06:22:42.225Z,99000.36
2019-02-28T06:25:24.060Z,98997.39
2019-02-28T06:27:51.831Z,98999.24
2019-02-28T06:30:27.619Z,98992.81
2019-02-28T06:33:00.640Z,98995.67
2019-02-28T06:35:34.532Z,98998.49
2019-02-28T06:38:08.353Z,98996.05
2019-02-28T06:40:42.627Z,98998.09
2019-02-28T06:43:18.808Z,99002.77
2019-02-28T06:45:51.639Z,99000.95
2019-02-28T06:48:26.628Z,99000.89
2019-02-28T06:51:00.729Z,99003.91
2019-02-28T06:53:36.376Z,99004.42
2019-02-28T06:56:10.237Z,98999.92
2019-02-28T06:58:51.258Z,99002.85
2019-02-28T07:01:25.779Z,99011.70
2019-02-28T07:04:01.145Z,99009.16
2019-02-28T07:06:35.935Z,99014.19
2019-02-28T07:09:11.001Z,99004.18
2019-02-28T07:11:46.815Z,99012.24
2019-02-28T07:14:20.868Z,99018.30
2019-02-28T07:16:54.787Z,99014.42
2019-02-28T07:19:31.027Z,99013.72
2019-02-28T07:22:04.943Z,99019.17
2019-02-28T07:24:40.545Z,99016.67
2019-02-28T07:27:15.913Z,99023.62
2019-02-28T07:29:49.942Z,99026.66
2019-02-28T07:32:26.202Z,99027.09
2019-02-28T07:35:00.796Z,99026.94
2019-02-28T07:37:34.619Z,99023.98
2019-02-28T07:40:15.753Z,99026.18
2019-02-28T07:42:50.501Z,99035.61
2019-02-28T07:45:24.566Z,99035.23
2019-02-28T07:48:00.734Z,99032.89
2019-02-28T07:50:34.625Z,99032.02
2019-02-28T07:53:11.801Z,99030.66
2019-02-28T07:55:46.035Z,99030.66
2019-02-28T07:58:20.012Z,99034.80
2019-02-28T08:00:54.401Z,99034.84
2019-02-28T08:03:30.080Z,99040.85
2019-02-28T08:06:04.917Z,99043.58
2019-02-28T08:08:40.734Z,99041.20
2019-02-28T08:11:16.437Z,99041.44
2019-02-28T08:13:55.553Z,99040.12
2019-02-28T08:16:34.023Z,99046.70
2019-02-28T08:19:06.463Z,99044.88
2019-02-28T08:21:47.570Z,99044.64
2019-02-28T08:24:18.618Z,99052.84
2019-02-28T08:26:53.645Z,99043.34
2019-02-28T08:29:27.581Z,99052.42
2019-02-28T08:32:06.995Z,99056.99
2019-02-28T08:34:38.796Z,99058.35
2019-02-28T08:37:12.666Z,99062.19
2019-02-28T08:39:46.581Z,99057.84
2019-02-28T08:42:20.601Z,99066.30
2019-02-28T08:44:58.081Z,99071.49
2019-02-28T08:47:29.868Z,99078.08
2019-02-28T08:50:05.340Z,99073.47
2019-02-28T08:52:41.017Z,99071.31
2019-02-28T08:55:27.897Z,99079.74
2019-02-28T08:58:04.421Z,99081.13
2019-02-28T09:00:33.384Z,99083.02
2019-02-28T09:03:08.253Z,99086.28
2019-02-28T09:05:43.155Z,99084.67
2019-02-28T09:08:17.299Z,99090.94
2019-02-28T09:10:56.390Z,99089.55
2019-02-28T09:13:32.451Z,99090.94
2019-02-28T09:16:09.106Z,99091.71
2019-02-28T09:18:44.855Z,99097.95
2019-02-28T09:21:21.667Z,99093.83
2019-02-28T09:23:59.401Z,99096.02
2019-02-28T09:26:36.747Z,99098.16
2019-02-28T09:29:14.350Z,99099.00
2019-02-28T09:31:48.948Z,99094.69
2019-02-28T09:34:24.853Z,99096.27
2019-02-28T09:37:00.156Z,99096.00
2019-02-28T09:39:35.630Z,99105.16
2019-02-28T09:42:14.815Z,99108.93
2019-02-28T09:44:52.938Z,99111.64
2019-02-28T09:47:27.571Z,99115.45
2019-02-28T09:50:08.715Z,99114.31
2019-02-28T09:52:44.569Z,99117.76
2019-02-28T09:55:25.493Z,99122.05
2019-02-28T09:58:07.464Z,99123.81
2019-02-28T10:00:39.969Z,99133.45
2019-02-28T10:03:15.418Z,99129.28
2019-02-28T10:05:51.562Z,99129.72
2019-02-28T10:08:27.416Z,99124.98
2019-02-28T10:11:03.065Z,99133.73
2019-02-28T10:13:38.929Z,99142.68
2019-02-28T10:16:13.613Z,99146.98
2019-02-28T10:18:48.352Z,99153.42
2019-02-28T10:21:25.350Z,99154.83
2019-02-28T10:24:01.968Z,99146.89
2019-02-28T10:26:38.942Z,99156.36
2019-02-28T10:29:15.676Z,99154.37
2019-02-28T10:31:54.153Z,99156.84
2019-02-28T10:34:35.366Z,99157.09
2019-02-28T10:37:11.234Z,99163.11
2019-02-28T10:39:46.085Z,99159.47
2019-02-28T10:42:24.595Z,99162.66
2019-02-28T10:45:06.528Z,99167.48
2019-02-28T10:47:40.801Z,99170.39
2019-02-28T10:50:32.170Z,99173.75
2019-02-28T10:53:06.085Z,99176.89
2019-02-28T10:55:41.288Z,99179.47
2019-02-28T10:58:27.352Z,99175.89
2019-02-28T11:01:08.659Z,99177.69
2019-02-28T11:03:42.686Z,99181.26
2019-02-28T11:06:18.751Z,99173.11
2019-02-28T11:08:57.254Z,99177.95
2019-02-28T11:11:32.254Z,99182.85
2019-02-28T11:14:08.844Z,99180.89
2019-02-28T11:16:46.526Z,99189.97
2019-02-28T11:19:27.527Z,99186.91
2019-02-28T11:22:05.955Z,99189.70
2019-02-28T11:24:41.747Z,99191.69
2019-02-28T11:27:20.903Z,99188.75
2019-02-28T11:30:00.170Z,99188.06
2019-02-28T11:32:36.412Z,99195.28
2019-02-28T11:35:13.718Z,99192.16
2019-02-28T11:37:48.809Z,99201.18
2019-02-28T11:40:26.412Z,99195.41
2019-02-28T11:43:02.870Z,99197.34
2019-02-28T11:45:39.860Z,99200.29
2019-02-28T11:48:23.409Z,99199.46
2019-02-28T11:50:58.761Z,99195.44
2019-02-28T11:53:39.380Z,99204.19
2019-02-28T11:56:11.052Z,99201.12
2019-02-28T11:58:51.481Z,99208.17
2019-02-28T12:01:25.858Z,99209.81
2019-02-28T12:04:03.825Z,99207.02
2019-02-28T12:06:44.274Z,99217.66
2019-02-28T12:09:21.025Z,99209.27
2019-02-28T12:12:01.959Z,99208.75
2019-02-28T12:14:39.976Z,99209.80
2019-02-28T12:17:18.548Z,99206.53
2019-02-28T12:19:53.873Z,99211.14
2019-02-28T12:22:35.450Z,99209.45
2019-02-28T12:25:17.652Z,99214.88
2019-02-28T12:27:59.400Z,99218.61
2019-02-28T12:30:40.165Z,99215.95
2019-02-28T12:33:15.476Z,99214.45
2019-02-28T12:36:17.744Z,99212.73
2019-02-28T12:38:44.567Z,99214.78
2019-02-28T12:41:21.700Z,99219.12
2019-02-28T12:43:59.735Z,99218.22
2019-02-28T12:46:35.832Z,99228.57
2019-02-28T12:49:13.346Z,99238.22
2019-02-28T12:51:50.533Z,99239.84
2019-02-28T12:54:25.996Z,99247.19
2019-02-28T12:57:02.470Z,99249.88
2019-02-28T12:59:46.097Z,99251.31
2019-02-28T13:02:19.821Z,99255.97
2019-02-28T13:04:59.689Z,99259.88
2019-02-28T13:07:37.037Z,99257.18
2019-02-28T13:10:15.033Z,99255.45
2019-02-28T13:13:05.612Z,99257.56
2019-02-28T13:15:35.108Z,99260.09
2019-02-28T13:18:10.489Z,99261.08
2019-02-28T13:20:45.970Z,99264.52
2019-02-28T13:23:21.910Z,99259.73
2019-02-28T13:25:59.960Z,99257.73
2019-02-28T13:28:35.082Z,99261.08
2019-02-28T13:31:09.993Z,99262.72
2019-02-28T13:33:52.773Z,99264.89
2019-02-28T13:36:28.058Z,99257.05
2019-02-28T13:39:02.397Z,99256.38
2019-02-28T13:41:36.942Z,99258.92
2019-02-28T13:44:11.838Z,99259.38
2019-02-28T13:46:46.963Z,99262.67
2019-02-28T13:49:22.112Z,99266.22
2019-02-28T13:51:56.951Z,99260.76
2019-02-28T13:54:33.471Z,99267.64
2019-02-28T13:57:10.417Z,99268.38
2019-02-28T13:59:48.349Z,99266.94
2019-02-28T14:02:22.908Z,99266.94
2019-02-28T14:04:58.679Z,99268.59
2019-02-28T14:07:35.185Z,99268.95
2019-02-28T14:10:14.581Z,99276.47
2019-02-28T14:12:52.979Z,99274.24
2019-02-28T14:15:27.890Z,99275.55
2019-02-28T14:18:04.164Z,99274.08
2019-02-28T14:20:40.357Z,99281.02
2019-02-28T14:23:21.681Z,99279.08
2019-02-28T14:29:14.907Z,99272.91
2019-02-28T14:35:09.895Z,99276.21
2019-02-28T14:37:46.708Z,99270.84
2019-02-28T14:40:21.644Z,99276.80
2019-02-28T14:42:56.176Z,99277.97
2019-02-28T14:45:39.022Z,99278.84
2019-02-28T14:48:13.559Z,99286.22
2019-02-28T14:50:50.707Z,99284.13
2019-02-28T14:53:26.194Z,99287.17
2019-02-28T14:56:00.862Z,99286.03
2019-02-28T14:58:37.110Z,99285.89
2019-02-28T15:01:16.824Z,99291.72
2019-02-28T15:03:48.617Z,99292.48
2019-02-28T15:06:26.308Z,99299.14
2019-02-28T15:09:00.371Z,99296.39
2019-02-28T15:11:34.649Z,99296.47
2019-02-28T15:14:10.520Z,99300.36
2019-02-28T15:16:46.143Z,99293.38
2019-02-28T15:19:21.359Z,99301.16
2019-02-28T15:21:55.823Z,99298.36
2019-02-28T15:24:36.065Z,99300.50
2019-02-28T15:27:10.430Z,99304.76
2019-02-28T15:29:45.477Z,99306.25
2019-02-28T15:32:23.496Z,99305.25
2019-02-28T15:35:03.865Z,99298.84
2019-02-28T15:37:36.784Z,99303.22
2019-02-28T15:40:16.311Z,99308.66
2019-02-28T15:42:52.115Z,99299.95
2019-02-28T15:45:27.893Z,99305.22
2019-02-28T15:48:03.518Z,99307.83
2019-02-28T15:50:37.590Z,99307.13
2019-02-28T15:53:14.339Z,99309.53
2019-02-28T15:55:47.435Z,99306.75
2019-02-28T15:58:22.250Z,99309.92
2019-02-28T16:00:56.631Z,99309.30
2019-02-28T16:03:35.510Z,99312.81
2019-02-28T16:06:09.520Z,99316.01
2019-02-28T16:08:46.787Z,99308.40
2019-02-28T16:11:18.654Z,99310.91
2019-02-28T16:13:52.512Z,99313.64
2019-02-28T16:16:27.549Z,99320.03
2019-02-28T16:19:01.588Z,99317.17
2019-02-28T16:21:38.133Z,99318.54
2019-02-28T16:24:10.556Z,99319.70
2019-02-28T16:26:44.693Z,99318.44
2019-02-28T16:29:20.714Z,99331.36
2019-02-28T16:31:53.643Z,99327.03
2019-02-28T16:34:27.586Z,99325.73
2019-02-28T16:37:01.947Z,99326.55
2019-02-28T16:39:35.943Z,99325.49
2019-02-28T16:42:11.406Z,99328.65
2019-02-28T16:44:46.405Z,99325.89
2019-02-28T16:47:21.455Z,99333.06
2019-02-28T16:49:55.512Z,99333.27
2019-02-28T16:52:29.469Z,99330.30
2019-02-28T16:55:03.518Z,99334.75
2019-02-28T16:57:37.459Z,99329.69
2019-02-28T17:00:16.564Z,99331.55
2019-02-28T17:02:50.559Z,99341.56
2019-02-28T17:05:28.001Z,99332.09
2019-02-28T17:08:02.125Z,99336.94
2019-02-28T17:10:40.185Z,99343.95
2019-02-28T17:13:12.404Z,99340.92
2019-02-28T17:15:48.183Z,99342.62
2019-02-28T17:18:22.559Z,99347.98
2019-02-28T17:20:59.467Z,99353.92
2019-02-28T17:23:33.667Z,99358.05
2019-02-28T17:26:08.630Z,99355.58
2019-02-28T17:28:46.623Z,99364.73
2019-02-28T17:31:20.538Z,99366.36
2019-02-28T17:33:54.584Z,99366.33
2019-02-28T17:36:30.072Z,99371.22
2019-02-28T17:39:04.110Z,99372.09
2019-02-28T17:41:39.719Z,99370.97
2019-02-28T17:44:33.969Z,99368.91
2019-02-28T17:47:13.229Z,99375.60
2019-02-28T17:50:05.554Z,99375.95
2019-02-28T17:53:01.144Z,99373.91
2019-02-28T17:55:47.405Z,99371.34
2019-02-28T17:58:41.575Z,99369.30
2019-02-28T18:01:37.654Z,99365.78
2019-02-28T18:04:28.777Z,99361.77
2019-02-28T18:07:35.971Z,99362.80
2019-02-28T18:10:33.626Z,99361.06
2019-02-28T18:13:19.998Z,99361.06
2019-02-28T18:16:30.210Z,99358.38
2019-02-28T18:19:33.094Z,99354.25
2019-02-28T18:22:16.142Z,99346.51
2019-02-28T18:25:22.491Z,99343.00
2019-02-28T18:28:26.989Z,99337.77
2019-02-28T18:31:22.084Z,99345.69
2019-02-28T18:33:57.511Z,99339.17
2019-02-28T18:36:32.970Z,99343.39
2019-02-28T18:39:08.113Z,99335.06
2019-02-28T18:41:43.159Z,99340.31
2019-02-28T18:44:17.185Z,99343.61
2019-02-28T18:46:51.156Z,99346.17
2019-02-28T18:49:26.665Z,99340.42
2019-02-28T18:52:00.348Z,99343.08
2019-02-28T18:54:34.355Z,99347.19
2019-02-28T18:57:09.916Z,99342.14
2019-02-28T18:59:43.849Z,99347.10
2019-02-28T19:02:18.090Z,99345.45
2019-02-28T19:04:52.074Z,99355.34
2019-02-28T19:07:26.660Z,99344.70
2019-02-28T19:10:00.628Z,99345.11
2019-02-28T19:12:34.544Z,99347.70
2019-02-28T19:15:16.331Z,99354.92
2019-02-28T19:17:50.311Z,99349.56
2019-02-28T19:20:24.169Z,99345.37
2019-02-28T19:22:59.616Z,99344.47
2019-02-28T19:25:36.710Z,99351.88
2019-02-28T19:28:08.692Z,99350.86
2019-02-28T19:30:42.643Z,99352.18
2019-02-28T19:33:18.087Z,99349.58
2019-02-28T19:35:53.443Z,99348.88
2019-02-28T19:38:28.833Z,99347.66
2019-02-28T19:41:04.188Z,99358.47
2019-02-28T19:43:38.052Z,99355.39
2019-02-28T19:46:11.955Z,99358.90
2019-02-28T19:48:45.999Z,99360.95
2019-02-28T19:51:19.959Z,99362.08
2019-02-28T19:53:53.859Z,99362.08
2019-02-28T19:56:27.844Z,99365.06
2019-02-28T19:59:01.800Z,99365.14
2019-02-28T20:01:35.759Z,99371.35
2019-02-28T20:04:09.679Z,99372.41
2019-02-28T20:06:43.697Z,99368.39
2019-02-28T20:09:17.823Z,99374.03
2019-02-28T20:11:51.795Z,99380.25
2019-02-28T20:14:25.878Z,99383.93
2019-02-28T20:16:59.890Z,99387.05
2019-02-28T20:19:33.786Z,99391.59
2019-02-28T20:22:08.065Z,99396.66
2019-02-28T20:24:42.102Z,99398.95
2019-02-28T20:27:17.477Z,99402.84
2019-02-28T20:29:55.165Z,99400.02
2019-02-28T20:32:27.833Z,99397.41
2019-02-28T20:35:01.738Z,99399.56
2019-02-28T20:37:35.627Z,99396.16
2019-02-28T20:40:22.843Z,99401.22
2019-02-28T20:42:57.730Z,99396.05
2019-02-28T20:45:31.760Z,99395.67
2019-02-28T20:48:05.879Z,99393.41
2019-02-28T20:50:52.630Z,99389.59
2019-02-28T20:53:25.824Z,99391.16
2019-02-28T20:56:01.010Z,99390.11
2019-02-28T20:58:35.010Z,99388.38
2019-02-28T21:04:11.884Z,99401.38
2019-02-28T21:06:45.763Z,99395.28
2019-02-28T21:09:20.636Z,99392.09
2019-02-28T21:11:54.630Z,99394.45
2019-02-28T21:14:30.120Z,99389.71
2019-02-28T21:17:04.128Z,99393.94
2019-02-28T21:19:39.463Z,99400.64
2019-02-28T21:22:13.593Z,99404.66
2019-02-28T21:24:47.472Z,99396.01
2019-02-28T21:27:21.407Z,99398.08
2019-02-28T21:29:55.365Z,99395.28
2019-02-28T21:32:29.248Z,99397.96
2019-02-28T21:35:04.652Z,99401.06
2019-02-28T21:37:38.587Z,99397.88
2019-02-28T21:40:15.332Z,99395.99
2019-02-28T21:42:49.295Z,99400.55
2019-02-28T21:45:27.018Z,99400.01
2019-02-28T21:48:09.578Z,99396.73
2019-02-28T21:50:42.461Z,99398.16
2019-02-28T21:53:16.404Z,99397.14
2019-02-28T21:55:50.467Z,99393.11
2019-02-28T21:58:25.951Z,99405.41
2019-02-28T22:01:00.033Z,99394.69
2019-02-28T22:03:34.062Z,99398.91
2019-02-28T22:06:08.019Z,99397.37
2019-02-28T22:08:44.341Z,99397.77
2019-02-28T22:11:19.784Z,99397.05
2019-02-28T22:13:55.323Z,99402.92
2019-02-28T22:16:29.295Z,99405.99
2019-02-28T22:19:03.970Z,99403.23
2019-02-28T22:21:38.656Z,99408.47
2019-02-28T22:24:13.826Z,99410.31
2019-02-28T22:26:50.694Z,99420.64
2019-02-28T22:29:24.756Z,99426.09
2019-02-28T22:31:58.717Z,99423.03
2019-02-28T22:34:32.724Z,99418.58
2019-02-28T22:37:06.677Z,99420.95
2019-02-28T22:39:40.587Z,99422.32
2019-02-28T22:42:22.143Z,99424.77
2019-02-28T22:44:53.615Z,99425.09
2019-02-28T22:47:26.641Z,99427.45
2019-02-28T22:50:02.284Z,99436.44
2019-02-28T22:52:37.868Z,99434.77
2019-02-28T22:55:14.661Z,99439.50
2019-02-28T22:57:49.866Z,99440.00
2019-02-28T23:00:45.327Z,99444.83
2019-02-28T23:03:19.419Z,99449.89
2019-02-28T23:05:53.553Z,99458.13
2019-02-28T23:08:27.602Z,99455.30
2019-02-28T23:14:34.735Z,99462.78
2019-02-28T23:17:07.120Z,99469.66
2019-02-28T23:19:41.062Z,99467.45
2019-02-28T23:22:16.846Z,99482.41
2019-02-28T23:24:50.474Z,99483.91
2019-02-28T23:27:24.406Z,99487.62
2019-02-28T23:30:08.071Z,99493.67
2019-02-28T23:32:54.563Z,99488.52
2019-02-28T23:35:31.414Z,99490.23
2019-02-28T23:38:06.776Z,99490.37
2019-02-28T23:40:44.741Z,99487.45
2019-02-28T23:43:18.760Z,99491.64
2019-02-28T23:45:52.759Z,99492.34
2019-02-28T23:48:28.329Z,99496.06
2019-02-28T23:51:11.385Z,99492.69
2019-02-28T23:53:46.556Z,99494.62
2019-02-28T23:56:20.485Z,99497.48
2019-02-28T23:58:55.905Z,99501.48
